Time;durP1;ratioP1;P1;durP2;ratioP2;P2;SDS_P1;SDS_P2;PMS_P1;PMS_P2;Temp;Humidity;BMP_temperature;BMP_pressure;BME280_temperature;BME280_humidity;BME280_pressure;Samples;Min_cycle;Max_cycle;Signal;HPM_P1;HPM_P2
2022/12/10 00:01:37;;;;;;;52.97;32.00;;;-0.70;99.90;;;;;;5046068;28;20457;-69
2022/12/10 00:04:05;;;;;;;53.83;30.23;;;-0.70;99.90;;;;;;5037894;28;20524;-69
2022/12/10 00:06:34;;;;;;;50.77;30.80;;;-0.70;99.90;;;;;;5037289;28;20460;-70
2022/12/10 00:09:05;;;;;;;53.63;31.53;;;-0.70;99.90;;;;;;5036880;28;20560;-70
2022/12/10 00:11:33;;;;;;;51.70;29.83;;;-0.80;99.90;;;;;;5037623;28;20473;-69
2022/12/10 00:14:01;;;;;;;53.17;32.33;;;-0.80;99.90;;;;;;5038106;28;20783;-69
2022/12/10 00:16:30;;;;;;;52.63;32.53;;;-0.80;99.90;;;;;;5037259;28;20468;-69
2022/12/10 00:18:58;;;;;;;53.37;31.97;;;-0.80;99.90;;;;;;5037496;28;20445;-69
2022/12/10 00:21:27;;;;;;;54.40;31.10;;;-0.90;99.90;;;;;;5037213;28;20557;-69
2022/12/10 00:23:55;;;;;;;54.67;33.27;;;-0.90;99.90;;;;;;5038425;28;20439;-70
2022/12/10 00:26:24;;;;;;;56.20;31.30;;;-1.00;99.90;;;;;;5037775;28;20466;-69
2022/12/10 00:28:52;;;;;;;50.33;29.57;;;-1.00;99.90;;;;;;5040918;28;20543;-69
2022/12/10 00:31:27;;;;;;;57.73;31.63;;;-1.10;99.90;;;;;;5057152;28;20475;-69
2022/12/10 00:33:56;;;;;;;55.87;33.20;;;-1.10;99.90;;;;;;5058004;28;20483;-69
2022/12/10 00:36:26;;;;;;;52.40;29.93;;;-1.00;99.90;;;;;;5056055;28;20472;-69
2022/12/10 00:38:54;;;;;;;54.30;33.00;;;-1.10;99.90;;;;;;5056953;28;20769;-69
2022/12/10 00:41:21;;;;;;;57.73;34.13;;;-1.10;99.90;;;;;;5057242;28;20441;-69
2022/12/10 00:43:49;;;;;;;62.37;35.03;;;-1.20;99.90;;;;;;5057398;28;20459;-69
2022/12/10 00:46:17;;;;;;;55.33;30.87;;;-1.20;99.90;;;;;;5057486;28;20438;-69
2022/12/10 00:48:45;;;;;;;58.10;31.90;;;-1.30;99.90;;;;;;5057417;28;20464;-69
2022/12/10 00:51:16;;;;;;;57.20;32.90;;;-1.30;99.90;;;;;;5057564;28;20883;-68
2022/12/10 00:53:44;;;;;;;55.37;31.13;;;-1.40;99.90;;;;;;5056778;28;20467;-69
2022/12/10 00:56:13;;;;;;;54.47;31.27;;;-1.40;99.90;;;;;;5057258;28;20553;-68
2022/12/10 00:58:41;;;;;;;55.53;31.33;;;-1.50;99.90;;;;;;5057066;28;20748;-69
2022/12/10 01:01:10;;;;;;;55.90;29.83;;;-1.70;99.90;;;;;;5056862;28;20463;-68
2022/12/10 01:03:37;;;;;;;53.73;29.80;;;-1.70;99.90;;;;;;5057333;28;20444;-68
2022/12/10 01:06:15;;;;;;;55.00;29.47;;;-1.70;99.90;;;;;;5057479;28;20441;-68
2022/12/10 01:08:44;;;;;;;53.43;31.13;;;-1.70;99.90;;;;;;5057237;28;20563;-68
2022/12/10 01:11:12;;;;;;;52.40;30.60;;;-1.80;99.90;;;;;;5056981;28;20561;-68
2022/12/10 01:13:41;;;;;;;57.37;30.70;;;-1.70;99.90;;;;;;5057324;28;20546;-68
2022/12/10 01:16:10;;;;;;;55.30;33.57;;;-1.60;99.90;;;;;;5057156;28;20437;-68
2022/12/10 01:18:38;;;;;;;58.53;33.27;;;-1.70;99.90;;;;;;5056476;28;20440;-68
2022/12/10 01:21:07;;;;;;;51.53;30.87;;;-1.70;99.90;;;;;;5057064;28;20519;-68
2022/12/10 01:23:38;;;;;;;55.03;31.90;;;-1.70;99.90;;;;;;5060546;28;20549;-68
2022/12/10 01:26:07;;;;;;;57.30;31.57;;;-1.70;99.90;;;;;;5061223;28;20436;-68
2022/12/10 01:28:37;;;;;;;56.73;31.90;;;-1.60;99.90;;;;;;5060660;28;20437;-68
2022/12/10 01:31:05;;;;;;;57.03;31.37;;;-1.60;99.90;;;;;;5060772;28;20432;-68
2022/12/10 01:33:34;;;;;;;52.50;29.97;;;-1.60;99.90;;;;;;5060788;28;20490;-68
2022/12/10 01:36:04;;;;;;;58.10;29.20;;;-1.80;99.90;;;;;;5060675;28;20462;-68
2022/12/10 01:38:31;;;;;;;55.47;29.67;;;-1.90;99.90;;;;;;5060458;28;20440;-67
2022/12/10 01:41:01;;;;;;;54.77;31.03;;;-2.00;99.90;;;;;;5060748;28;20466;-67
2022/12/10 01:43:29;;;;;;;50.70;31.30;;;-1.80;99.90;;;;;;5060435;28;20488;-68
2022/12/10 01:45:56;;;;;;;53.93;30.20;;;-1.90;99.90;;;;;;5060986;28;20461;-68
2022/12/10 01:48:23;;;;;;;55.07;31.73;;;-1.90;99.90;;;;;;5060581;28;20436;-68
2022/12/10 01:50:50;;;;;;;58.33;33.10;;;-1.80;99.90;;;;;;5060365;28;20462;-68
2022/12/10 01:53:18;;;;;;;52.73;30.73;;;-1.80;99.90;;;;;;5060669;28;20436;-68
2022/12/10 01:55:49;;;;;;;54.93;31.67;;;-1.80;99.90;;;;;;5060466;28;20531;-67
2022/12/10 01:58:19;;;;;;;54.40;29.90;;;-1.90;99.90;;;;;;5060920;28;20921;-67
2022/12/10 02:01:06;;;;;;;52.00;30.60;;;-2.00;99.90;;;;;;5060409;28;20437;-67
2022/12/10 02:03:42;;;;;;;54.63;30.60;;;-2.00;99.90;;;;;;5060210;28;20435;-67
2022/12/10 02:06:26;;;;;;;55.37;29.97;;;-1.90;99.90;;;;;;5060062;28;20486;-67
2022/12/10 02:09:02;;;;;;;59.27;33.20;;;-1.80;99.90;;;;;;5059645;28;20436;-68
2022/12/10 02:11:35;;;;;;;51.70;28.07;;;-1.90;99.90;;;;;;5059972;28;20502;-67
2022/12/10 02:14:13;;;;;;;48.33;27.23;;;-1.90;99.90;;;;;;5060134;28;20585;-67
2022/12/10 02:16:45;;;;;;;43.20;25.80;;;-2.00;99.90;;;;;;5059817;28;20470;-67
2022/12/10 02:19:19;;;;;;;55.30;29.70;;;-1.90;99.90;;;;;;5060155;28;20437;-67
2022/12/10 02:21:50;;;;;;;51.03;29.37;;;-1.80;99.90;;;;;;5060360;28;20472;-67
2022/12/10 02:24:22;;;;;;;48.17;28.60;;;-1.90;99.90;;;;;;5060273;28;20490;-66
2022/12/10 02:26:57;;;;;;;54.70;30.83;;;-1.90;99.90;;;;;;5059669;28;20504;-67
2022/12/10 02:29:28;;;;;;;48.13;28.73;;;-2.00;99.90;;;;;;5058694;28;20484;-67
2022/12/10 02:32:00;;;;;;;50.23;28.57;;;-2.00;99.90;;;;;;5059680;28;20866;-67
2022/12/10 02:34:31;;;;;;;51.07;30.17;;;-2.00;99.90;;;;;;5058119;28;20455;-67
2022/12/10 02:37:05;;;;;;;50.10;27.20;;;-2.10;99.90;;;;;;5059658;28;20447;-67
2022/12/10 02:39:37;;;;;;;49.80;29.70;;;-2.00;99.90;;;;;;5059414;28;20556;-67
2022/12/10 02:42:07;;;;;;;49.80;28.97;;;-1.90;99.90;;;;;;5059423;28;20470;-67
2022/12/10 02:44:38;;;;;;;53.30;30.37;;;-1.90;99.90;;;;;;5059102;28;20498;-67
2022/12/10 02:47:07;;;;;;;49.63;29.83;;;-2.00;99.90;;;;;;5059104;28;20441;-67
2022/12/10 02:49:36;;;;;;;55.17;29.60;;;-2.00;99.90;;;;;;5059292;28;20888;-67
2022/12/10 02:52:08;;;;;;;45.70;27.03;;;-2.10;99.90;;;;;;5059421;28;20527;-67
2022/12/10 02:54:39;;;;;;;45.57;27.10;;;-2.10;99.90;;;;;;5058879;28;20443;-66
2022/12/10 02:57:20;;;;;;;49.97;28.40;;;-2.10;99.90;;;;;;5059232;28;20775;-66
2022/12/10 03:00:04;;;;;;;46.30;27.87;;;-2.10;99.90;;;;;;5059579;28;20432;-66
2022/12/10 03:02:39;;;;;;;50.37;26.73;;;-2.20;99.90;;;;;;5058679;28;20476;-66
2022/12/10 03:05:14;;;;;;;50.90;29.10;;;-2.00;99.90;;;;;;5059072;28;20500;-66
2022/12/10 03:07:49;;;;;;;51.00;28.20;;;-2.00;99.90;;;;;;5059061;28;20950;-66
2022/12/10 03:10:25;;;;;;;51.20;28.90;;;-2.00;99.90;;;;;;5059457;28;20500;-66
2022/12/10 03:12:58;;;;;;;62.70;30.80;;;-1.90;99.90;;;;;;5058901;28;20467;-66
2022/12/10 03:15:28;;;;;;;51.80;27.73;;;-1.80;99.90;;;;;;5058801;28;20721;-67
2022/12/10 03:17:57;;;;;;;54.93;29.13;;;-1.70;99.90;;;;;;5058901;28;20469;-67
2022/12/10 03:20:26;;;;;;;50.83;29.00;;;-1.80;99.90;;;;;;5058858;28;20436;-66
2022/12/10 03:22:54;;;;;;;48.50;28.20;;;-1.80;99.90;;;;;;5058267;28;20448;-67
2022/12/10 03:25:25;;;;;;;47.63;25.67;;;-1.80;99.90;;;;;;5058381;28;20529;-66
2022/12/10 03:27:56;;;;;;;52.33;28.87;;;-1.70;99.90;;;;;;5058947;28;20444;-66
2022/12/10 03:30:24;;;;;;;49.70;27.77;;;-1.60;99.90;;;;;;5058082;28;20490;-67
2022/12/10 03:32:54;;;;;;;49.70;27.87;;;-1.60;99.90;;;;;;5058335;28;20466;-66
2022/12/10 03:35:23;;;;;;;49.57;26.27;;;-1.50;99.90;;;;;;5058274;28;20557;-66
2022/12/10 03:37:51;;;;;;;52.43;29.50;;;-1.50;99.90;;;;;;5058310;28;20438;-67
2022/12/10 03:40:23;;;;;;;44.80;27.50;;;-1.50;99.90;;;;;;5058493;28;20458;-67
2022/12/10 03:42:50;;;;;;;45.17;25.80;;;-1.50;99.90;;;;;;5058409;28;20470;-67
2022/12/10 03:45:17;;;;;;;50.87;27.20;;;-1.50;99.90;;;;;;5057519;28;20500;-66
2022/12/10 03:47:44;;;;;;;52.17;29.03;;;-1.40;99.90;;;;;;5057787;28;20438;-67
2022/12/10 03:50:13;;;;;;;54.20;28.50;;;-1.50;99.90;;;;;;5058434;28;20486;-66
2022/12/10 03:52:40;;;;;;;48.30;28.50;;;-1.40;99.90;;;;;;5057735;28;20462;-66
2022/12/10 03:55:09;;;;;;;55.37;29.60;;;-1.40;99.90;;;;;;5058181;28;20459;-66
2022/12/10 03:57:36;;;;;;;54.67;30.07;;;-1.30;99.90;;;;;;5057955;28;20467;-66
2022/12/10 04:00:04;;;;;;;49.23;27.53;;;-1.40;99.90;;;;;;5057879;28;20515;-67
2022/12/10 04:02:31;;;;;;;52.30;28.40;;;-1.40;99.90;;;;;;5057689;28;20553;-67
2022/12/10 04:04:59;;;;;;;53.07;29.03;;;-1.40;99.90;;;;;;5057617;28;20591;-66
2022/12/10 04:07:27;;;;;;;48.93;27.63;;;-1.30;99.90;;;;;;5058096;28;20568;-66
2022/12/10 04:09:54;;;;;;;52.23;28.47;;;-1.30;99.90;;;;;;5058565;28;20495;-66
2022/12/10 04:12:21;;;;;;;55.43;30.27;;;-1.20;99.90;;;;;;5058128;28;20460;-67
2022/12/10 04:17:34;;;;;;;46.73;28.40;;;-1.10;99.90;;;;;;5057173;28;20439;-67
2022/12/10 04:20:01;;;;;;;49.60;27.47;;;-1.10;99.90;;;;;;5057756;28;20465;-67
2022/12/10 04:27:59;;;;;;;50.63;28.47;;;-1.00;99.90;;;;;;5057726;28;20437;-66
2022/12/10 04:30:26;;;;;;;52.47;26.97;;;-1.00;99.90;;;;;;5056957;28;20918;-66
2022/12/10 04:32:53;;;;;;;46.10;27.40;;;-1.00;99.90;;;;;;5057014;28;20468;-67
2022/12/10 04:35:20;;;;;;;51.63;28.43;;;-1.00;99.90;;;;;;5057672;28;20554;-66
2022/12/10 04:37:49;;;;;;;51.30;27.40;;;-0.90;99.90;;;;;;5057564;28;20709;-66
2022/12/10 04:40:16;;;;;;;43.17;26.80;;;-0.90;99.90;;;;;;5057660;28;20459;-66
2022/12/10 04:42:43;;;;;;;41.73;24.00;;;-0.90;99.90;;;;;;5057443;28;20464;-67
2022/12/10 04:45:11;;;;;;;38.27;24.60;;;-1.00;99.90;;;;;;5057187;28;20818;-66
2022/12/10 04:47:38;;;;;;;37.63;22.03;;;-0.90;99.90;;;;;;5057438;28;20752;-66
2022/12/10 04:50:06;;;;;;;35.33;22.10;;;-0.90;99.90;;;;;;5057343;28;20440;-66
2022/12/10 04:52:33;;;;;;;33.30;21.20;;;-0.90;99.90;;;;;;5056764;28;20473;-67
2022/12/10 04:55:02;;;;;;;29.83;18.63;;;-0.90;99.90;;;;;;5057049;28;20747;-67
2022/12/10 04:57:29;;;;;;;30.57;17.20;;;-0.90;99.90;;;;;;5060018;28;20472;-67
2022/12/10 04:59:56;;;;;;;25.47;15.93;;;-0.90;99.90;;;;;;5061571;28;20440;-66
2022/12/10 05:02:23;;;;;;;32.90;20.57;;;-0.90;99.90;;;;;;5061087;28;20777;-66
2022/12/10 05:04:51;;;;;;;26.97;17.73;;;-0.90;99.90;;;;;;5061280;28;20892;-66
2022/12/10 05:07:18;;;;;;;24.40;15.90;;;-0.90;99.90;;;;;;5061172;28;20476;-66
2022/12/10 05:09:45;;;;;;;26.77;16.67;;;-0.90;99.90;;;;;;5061301;28;20556;-66
2022/12/10 05:12:13;;;;;;;25.37;16.53;;;-0.90;99.90;;;;;;5061846;28;20440;-66
2022/12/10 05:14:41;;;;;;;23.60;15.93;;;-0.90;99.90;;;;;;5060963;28;20748;-66
2022/12/10 05:17:08;;;;;;;26.93;19.27;;;-0.80;99.90;;;;;;5061062;28;20894;-66
2022/12/10 05:19:35;;;;;;;24.33;16.80;;;-0.80;99.90;;;;;;5061119;28;20475;-67
2022/12/10 05:24:47;;;;;;;26.10;16.57;;;-0.80;99.90;;;;;;5060699;28;20934;-66
2022/12/10 05:27:15;;;;;;;23.47;16.30;;;-0.80;99.90;;;;;;5060805;28;20461;-66
2022/12/10 05:29:42;;;;;;;22.00;14.63;;;-0.70;99.90;;;;;;5059847;28;20491;-66
2022/12/10 05:32:10;;;;;;;25.63;16.27;;;-0.80;99.90;;;;;;5060611;28;20443;-66
2022/12/10 05:34:37;;;;;;;24.73;15.57;;;-0.80;99.90;;;;;;5060738;28;20467;-67
2022/12/10 05:37:05;;;;;;;26.67;17.80;;;-0.80;99.90;;;;;;5060682;28;20562;-66
2022/12/10 05:39:32;;;;;;;25.67;17.10;;;-0.80;99.90;;;;;;5060650;28;20873;-66
2022/12/10 05:41:59;;;;;;;26.93;17.37;;;-0.90;99.90;;;;;;5060611;28;20477;-66
2022/12/10 05:44:29;;;;;;;25.77;17.70;;;-0.90;99.90;;;;;;5060545;28;20927;-66
2022/12/10 05:46:56;;;;;;;24.77;15.10;;;-0.90;99.90;;;;;;5060313;28;20443;-67
2022/12/10 05:49:23;;;;;;;23.20;16.20;;;-0.90;99.90;;;;;;5060557;28;20852;-66
2022/12/10 05:51:50;;;;;;;24.93;16.83;;;-0.90;99.90;;;;;;5060405;28;20467;-66
2022/12/10 05:54:17;;;;;;;23.30;15.10;;;-1.00;99.90;;;;;;5060823;28;20459;-66
2022/12/10 05:56:45;;;;;;;23.13;16.57;;;-1.00;99.90;;;;;;5060374;28;20470;-66
2022/12/10 05:59:12;;;;;;;24.23;16.80;;;-1.10;99.90;;;;;;5060187;28;20482;-66
2022/12/10 06:01:41;;;;;;;23.40;16.10;;;-1.10;99.90;;;;;;5060536;28;20894;-66
2022/12/10 06:04:08;;;;;;;24.30;16.00;;;-1.00;99.90;;;;;;5060322;28;20438;-66
2022/12/10 06:06:37;;;;;;;27.93;19.00;;;-1.00;99.90;;;;;;5059882;28;20491;-66
2022/12/10 06:09:06;;;;;;;24.97;16.57;;;-1.00;99.90;;;;;;5059191;28;20537;-66
2022/12/10 06:11:34;;;;;;;30.23;18.20;;;-1.00;99.90;;;;;;5060160;28;20438;-66
2022/12/10 06:14:01;;;;;;;21.33;15.43;;;-1.10;99.90;;;;;;5060193;28;20927;-66
2022/12/10 06:16:30;;;;;;;30.07;17.93;;;-1.10;99.90;;;;;;5059481;28;20523;-66
2022/12/10 06:18:58;;;;;;;25.70;17.70;;;-1.20;99.90;;;;;;5059910;28;20512;-66
2022/12/10 06:21:26;;;;;;;27.40;17.13;;;-1.20;99.90;;;;;;5059735;28;20446;-66
2022/12/10 06:23:54;;;;;;;23.20;16.97;;;-1.30;99.90;;;;;;5059938;28;20740;-66
2022/12/10 06:26:23;;;;;;;30.23;17.43;;;-1.40;99.90;;;;;;5059236;28;20590;-66
2022/12/10 06:28:51;;;;;;;29.80;18.00;;;-1.50;99.90;;;;;;5059393;28;20462;-66
2022/12/10 06:31:18;;;;;;;25.27;15.83;;;-1.50;99.90;;;;;;5059363;28;20464;-66
2022/12/10 06:33:46;;;;;;;30.60;17.70;;;-1.60;99.90;;;;;;5059990;28;20470;-65
2022/12/10 06:36:16;;;;;;;26.90;18.90;;;-1.70;99.90;;;;;;5059714;28;20463;-66
2022/12/10 06:38:44;;;;;;;24.10;16.90;;;-1.70;99.90;;;;;;5059430;28;20487;-65
2022/12/10 06:41:14;;;;;;;29.57;17.23;;;-1.70;99.90;;;;;;5059624;28;20461;-65
2022/12/10 06:43:41;;;;;;;25.13;15.87;;;-1.80;99.90;;;;;;5059516;28;20436;-66
2022/12/10 06:46:10;;;;;;;27.03;17.27;;;-1.90;99.90;;;;;;5059281;28;20471;-65
2022/12/10 06:48:37;;;;;;;24.50;17.70;;;-1.90;99.90;;;;;;5059298;28;20441;-65
2022/12/10 06:51:05;;;;;;;21.87;15.73;;;-2.00;99.90;;;;;;5059443;28;20462;-65
2022/12/10 06:53:35;;;;;;;24.30;17.43;;;-2.10;99.90;;;;;;5059404;28;20553;-65
2022/12/10 06:56:03;;;;;;;25.00;17.43;;;-2.10;99.90;;;;;;5059201;28;20431;-65
2022/12/10 06:58:32;;;;;;;24.70;17.70;;;-2.30;99.90;;;;;;5058960;28;20506;-65
2022/12/10 07:01:04;;;;;;;24.07;17.40;;;-2.30;99.90;;;;;;5058867;28;20455;-65
2022/12/10 07:03:31;;;;;;;26.60;17.80;;;-2.30;99.90;;;;;;5059211;28;20927;-65
2022/12/10 07:05:59;;;;;;;25.77;17.80;;;-2.40;99.90;;;;;;5059173;28;20468;-65
2022/12/10 07:08:26;;;;;;;26.43;18.20;;;-2.40;99.90;;;;;;5058774;28;20880;-65
2022/12/10 07:10:55;;;;;;;26.43;18.00;;;-2.40;99.90;;;;;;5057785;28;20473;-65
2022/12/10 07:13:22;;;;;;;25.47;18.03;;;-2.20;99.90;;;;;;5057521;28;20462;-65
2022/12/10 07:15:50;;;;;;;30.90;19.10;;;-2.30;99.90;;;;;;5058008;28;20535;-65
2022/12/10 07:18:17;;;;;;;26.40;19.17;;;-2.30;99.90;;;;;;5058515;28;20504;-65
2022/12/10 07:20:44;;;;;;;26.53;18.73;;;-2.20;99.90;;;;;;5056994;28;20462;-65
2022/12/10 07:23:11;;;;;;;29.03;20.53;;;-2.40;99.90;;;;;;5057111;28;20443;-65
2022/12/10 07:25:38;;;;;;;32.30;20.90;;;-2.40;99.90;;;;;;5058352;28;20942;-65
2022/12/10 07:28:07;;;;;;;34.40;23.00;;;-2.40;99.90;;;;;;5058493;28;20462;-65
2022/12/10 07:30:34;;;;;;;27.23;20.30;;;-2.40;99.90;;;;;;5058292;28;20471;-65
2022/12/10 07:33:01;;;;;;;29.30;21.03;;;-2.40;99.90;;;;;;5058578;28;20474;-65
2022/12/10 07:35:29;;;;;;;34.20;21.97;;;-2.40;99.90;;;;;;5058730;28;20485;-65
2022/12/10 07:37:56;;;;;;;32.50;25.70;;;-2.40;99.90;;;;;;5058297;28;20871;-65
2022/12/10 07:40:23;;;;;;;41.70;32.17;;;-2.20;99.90;;;;;;5057746;28;20466;-65
2022/12/10 07:42:50;;;;;;;44.23;34.23;;;-2.20;99.90;;;;;;5058560;28;20879;-65
2022/12/10 07:45:19;;;;;;;41.13;28.00;;;-2.10;99.90;;;;;;5058247;28;20489;-65
2022/12/10 07:47:46;;;;;;;36.17;25.43;;;-2.10;99.90;;;;;;5058302;28;20462;-65
2022/12/10 07:50:13;;;;;;;50.43;31.30;;;-2.10;99.90;;;;;;5058375;28;20466;-65
2022/12/10 07:52:40;;;;;;;39.37;26.47;;;-2.20;99.90;;;;;;5057966;28;20900;-65
2022/12/10 07:55:08;;;;;;;42.37;26.33;;;-2.20;99.90;;;;;;5058053;28;20463;-65
2022/12/10 07:57:35;;;;;;;30.23;22.57;;;-2.20;99.90;;;;;;5058211;28;20458;-65
2022/12/10 08:00:03;;;;;;;34.67;22.40;;;-2.00;99.90;;;;;;5058129;28;20491;-65
2022/12/10 08:02:31;;;;;;;34.33;24.30;;;-2.00;99.90;;;;;;5057818;28;20745;-65
2022/12/10 08:04:59;;;;;;;37.57;24.13;;;-1.90;99.90;;;;;;5057739;28;20467;-65
2022/12/10 08:07:26;;;;;;;41.83;26.80;;;-2.00;99.90;;;;;;5057681;28;20858;-65
2022/12/10 08:09:53;;;;;;;38.53;27.60;;;-1.90;99.90;;;;;;5058169;28;20527;-66
2022/12/10 08:12:20;;;;;;;34.00;26.10;;;-1.90;99.90;;;;;;5057252;28;20468;-66
2022/12/10 08:14:47;;;;;;;34.17;22.67;;;-1.80;99.90;;;;;;5057781;28;20461;-66
2022/12/10 08:17:14;;;;;;;40.03;25.33;;;-1.80;99.90;;;;;;5057517;28;20465;-66
2022/12/10 08:19:43;;;;;;;37.73;24.73;;;-1.70;99.90;;;;;;5056677;28;20932;-66
2022/12/10 08:22:10;;;;;;;42.63;31.40;;;-1.70;99.90;;;;;;5056402;28;20465;-66
2022/12/10 08:24:37;;;;;;;38.07;27.50;;;-1.60;99.90;;;;;;5056007;28;20465;-67
2022/12/10 08:27:04;;;;;;;49.90;36.80;;;-1.60;99.90;;;;;;5055398;28;20473;-67
2022/12/10 08:29:32;;;;;;;51.43;35.73;;;-1.50;99.90;;;;;;5054775;28;20563;-67
2022/12/10 08:31:59;;;;;;;48.40;33.63;;;-1.40;99.90;;;;;;5056182;28;20552;-67
2022/12/10 08:34:26;;;;;;;47.60;31.60;;;-1.40;99.90;;;;;;5056185;28;20470;-67
2022/12/10 08:36:55;;;;;;;62.60;34.67;;;-1.30;99.90;;;;;;5057690;28;20964;-67
2022/12/10 08:39:22;;;;;;;49.50;33.90;;;-1.30;99.90;;;;;;5057410;28;20462;-67
2022/12/10 08:41:49;;;;;;;48.20;32.80;;;-1.30;99.90;;;;;;5057402;28;20437;-67
2022/12/10 08:44:16;;;;;;;40.00;26.43;;;-1.20;99.90;;;;;;5057243;28;20439;-66
2022/12/10 08:46:44;;;;;;;41.43;25.20;;;-1.20;99.90;;;;;;5056842;28;20482;-67
2022/12/10 08:49:11;;;;;;;42.70;25.93;;;-1.10;99.90;;;;;;5057208;28;20474;-67
2022/12/10 08:51:38;;;;;;;43.40;28.07;;;-0.80;99.90;;;;;;5057668;28;20464;-67
2022/12/10 08:54:07;;;;;;;50.33;28.57;;;-0.80;99.90;;;;;;5057835;28;20570;-66
2022/12/10 08:56:34;;;;;;;45.43;26.97;;;-0.90;99.90;;;;;;5057516;28;20768;-66
2022/12/10 08:59:01;;;;;;;59.10;32.90;;;-0.90;99.90;;;;;;5056988;28;20565;-66
2022/12/10 09:01:28;;;;;;;55.47;31.83;;;-0.90;99.90;;;;;;5057590;28;20905;-66
2022/12/10 09:03:56;;;;;;;56.50;33.40;;;-1.00;99.90;;;;;;5056978;28;20437;-65
2022/12/10 09:06:24;;;;;;;72.87;37.80;;;-1.00;99.90;;;;;;5057443;28;20493;-66
2022/12/10 09:08:52;;;;;;;55.17;31.87;;;-1.00;99.90;;;;;;5056911;28;20442;-66
2022/12/10 09:11:24;;;;;;;56.30;31.50;;;-1.00;99.90;;;;;;5057342;28;20502;-66
2022/12/10 09:13:52;;;;;;;54.10;31.20;;;-0.90;99.90;;;;;;5057705;28;20444;-66
2022/12/10 09:16:19;;;;;;;57.30;30.73;;;-0.90;99.90;;;;;;5056818;28;20459;-66
2022/12/10 09:18:47;;;;;;;54.97;30.80;;;-1.00;99.90;;;;;;5056908;28;20582;-66
2022/12/10 09:21:16;;;;;;;49.17;29.43;;;-1.00;99.90;;;;;;5057583;28;20832;-66
2022/12/10 09:23:44;;;;;;;54.70;31.60;;;-1.00;99.90;;;;;;5056890;28;20915;-66
2022/12/10 09:26:14;;;;;;;62.20;34.97;;;-1.00;99.90;;;;;;5056866;28;20498;-66
2022/12/10 09:28:44;;;;;;;55.53;31.10;;;-0.90;99.90;;;;;;5056786;28;20443;-66
2022/12/10 09:31:13;;;;;;;63.07;32.30;;;-0.90;99.90;;;;;;5057373;28;20478;-66
2022/12/10 09:33:41;;;;;;;60.50;31.67;;;-0.90;99.90;;;;;;5057493;28;20502;-66
2022/12/10 09:36:10;;;;;;;59.73;31.10;;;-1.00;99.90;;;;;;5057499;28;20460;-66
2022/12/10 09:38:39;;;;;;;60.70;33.23;;;-0.90;99.90;;;;;;5057030;28;20509;-66
2022/12/10 09:41:20;;;;;;;59.70;33.37;;;-0.90;99.90;;;;;;5057007;28;20733;-66
2022/12/10 09:43:52;;;;;;;61.73;32.10;;;-0.90;99.90;;;;;;5060152;28;20470;-66
2022/12/10 09:46:27;;;;;;;58.87;32.90;;;-0.80;99.90;;;;;;5060709;28;20582;-66
2022/12/10 09:49:04;;;;;;;60.90;31.00;;;-0.90;99.90;;;;;;5060936;28;20874;-66
2022/12/10 09:51:34;;;;;;;64.60;34.77;;;-0.80;99.90;;;;;;5060777;28;20921;-66
2022/12/10 09:54:04;;;;;;;60.47;33.17;;;-0.80;99.90;;;;;;5060787;28;20461;-66
2022/12/10 09:56:35;;;;;;;66.53;34.50;;;-0.60;99.90;;;;;;5060428;28;20435;-66
2022/12/10 09:59:12;;;;;;;64.10;33.70;;;-0.60;99.90;;;;;;5060708;28;20468;-66
2022/12/10 10:01:40;;;;;;;61.93;33.63;;;-0.60;99.90;;;;;;5055874;28;20476;-66
2022/12/10 10:04:07;;;;;;;63.00;34.17;;;-0.50;99.90;;;;;;5060133;28;20464;-66
2022/12/10 10:06:35;;;;;;;63.73;34.53;;;-0.50;99.90;;;;;;5059925;28;20467;-66
2022/12/10 10:09:03;;;;;;;55.93;32.00;;;-0.40;99.90;;;;;;5059917;28;20445;-66
2022/12/10 10:11:33;;;;;;;60.10;33.07;;;-0.40;99.90;;;;;;5060124;28;20565;-66
2022/12/10 10:14:10;;;;;;;68.43;35.00;;;-0.50;99.90;;;;;;5060472;28;20468;-65
2022/12/10 10:16:45;;;;;;;58.53;30.70;;;-0.50;99.90;;;;;;5059820;28;20439;-66
2022/12/10 10:19:15;;;;;;;57.60;34.00;;;-0.60;99.90;;;;;;5054694;28;20465;-67
2022/12/10 10:21:44;;;;;;;58.03;32.47;;;-0.60;99.90;;;;;;5055877;28;20785;-68
2022/12/10 10:24:16;;;;;;;49.33;30.10;;;-0.50;99.90;;;;;;5049664;28;20430;-68
2022/12/10 10:26:45;;;;;;;57.93;30.17;;;-0.40;99.90;;;;;;5047340;28;20497;-68
2022/12/10 10:29:18;;;;;;;57.27;31.87;;;-0.40;99.90;;;;;;5052360;28;20451;-65
2022/12/10 10:31:45;;;;;;;57.80;33.57;;;-0.40;99.90;;;;;;5058464;28;20540;-65
2022/12/10 10:34:17;;;;;;;55.70;29.93;;;-0.30;99.90;;;;;;5058697;28;20464;-66
2022/12/10 10:36:45;;;;;;;57.77;29.77;;;-0.40;99.90;;;;;;5058714;28;20460;-66
2022/12/10 10:39:28;;;;;;;58.30;29.90;;;-0.40;99.90;;;;;;5058752;28;20471;-65
2022/12/10 10:41:57;;;;;;;49.60;27.83;;;-0.40;99.90;;;;;;5058717;28;20447;-66
2022/12/10 10:44:28;;;;;;;80.03;40.77;;;-0.40;99.90;;;;;;5056978;28;20453;-66
2022/12/10 10:46:56;;;;;;;65.20;38.10;;;-0.50;99.90;;;;;;5057513;28;20779;-65
2022/12/10 10:49:26;;;;;;;65.00;38.17;;;-0.50;99.90;;;;;;5058015;28;20462;-66
2022/12/10 10:51:55;;;;;;;66.53;35.33;;;-0.40;99.90;;;;;;5057835;28;20741;-66
2022/12/10 10:54:35;;;;;;;58.00;33.00;;;-0.40;99.90;;;;;;5056310;28;20765;-66
2022/12/10 10:57:11;;;;;;;51.90;30.90;;;-0.40;99.90;;;;;;5058152;28;20462;-66
2022/12/10 10:59:40;;;;;;;63.20;33.57;;;-0.40;99.90;;;;;;5059308;28;20468;-66
2022/12/10 11:02:21;;;;;;;51.70;31.37;;;-0.30;99.90;;;;;;5059270;28;20472;-66
2022/12/10 11:04:50;;;;;;;58.70;32.47;;;-0.20;99.90;;;;;;5058836;28;20466;-66
2022/12/10 11:07:23;;;;;;;58.27;31.60;;;-0.30;99.90;;;;;;5059095;28;20489;-66
2022/12/10 11:09:51;;;;;;;44.60;26.97;;;-0.20;99.90;;;;;;5059541;28;20469;-66
2022/12/10 11:12:38;;;;;;;49.20;30.40;;;-0.20;99.90;;;;;;5058476;28;20468;-66
2022/12/10 11:15:33;;;;;;;47.60;30.67;;;-0.10;99.90;;;;;;5058334;28;20469;-66
2022/12/10 11:18:01;;;;;;;50.43;31.10;;;-0.10;99.90;;;;;;5058991;28;20469;-65
2022/12/10 11:20:31;;;;;;;61.87;33.90;;;-0.10;99.90;;;;;;5057107;28;20461;-66
2022/12/10 11:23:02;;;;;;;54.60;32.10;;;0.00;99.90;;;;;;5058558;28;20475;-65
2022/12/10 11:25:43;;;;;;;52.43;31.30;;;0.00;99.90;;;;;;5058247;28;20472;-66
2022/12/10 11:28:26;;;;;;;50.63;30.17;;;0.10;99.90;;;;;;5058818;28;20495;-66
2022/12/10 11:31:09;;;;;;;50.93;29.27;;;0.00;99.90;;;;;;5057844;28;20905;-66
2022/12/10 11:33:44;;;;;;;53.00;28.67;;;-0.10;99.90;;;;;;5058438;28;20522;-66
2022/12/10 11:36:26;;;;;;;47.23;28.70;;;-0.10;99.90;;;;;;5059098;28;20439;-66
2022/12/10 11:39:01;;;;;;;49.87;27.57;;;-0.10;99.90;;;;;;5058615;28;20436;-67
2022/12/10 11:41:37;;;;;;;54.37;32.57;;;-0.10;99.90;;;;;;5058078;28;20457;-66
2022/12/10 11:44:21;;;;;;;71.80;40.77;;;-0.10;99.90;;;;;;5058067;28;20483;-66
2022/12/10 11:47:05;;;;;;;50.40;34.17;;;0.00;99.90;;;;;;5058040;28;20499;-66
2022/12/10 11:49:40;;;;;;;46.27;31.40;;;0.10;99.90;;;;;;5058333;28;20460;-66
2022/12/10 11:52:17;;;;;;;48.13;27.17;;;0.10;99.90;;;;;;5055339;28;20482;-66
2022/12/10 11:54:58;;;;;;;54.30;27.97;;;0.10;99.90;;;;;;5054665;28;20461;-66
2022/12/10 11:57:35;;;;;;;50.30;27.90;;;0.20;99.90;;;;;;5055996;28;20743;-66
2022/12/10 12:00:16;;;;;;;48.90;28.70;;;0.20;99.90;;;;;;5058087;28;20548;-66
2022/12/10 12:03:29;;;;;;;47.87;29.17;;;0.20;99.90;;;;;;5056647;28;20509;-66
2022/12/10 12:06:10;;;;;;;48.83;30.53;;;0.20;99.90;;;;;;4976327;28;20786;-66
2022/12/10 12:08:51;;;;;;;52.37;29.37;;;0.10;99.90;;;;;;4957101;29;20498;-66
2022/12/10 12:11:31;;;;;;;53.33;28.83;;;0.20;99.90;;;;;;4957009;29;20465;-66
2022/12/10 12:14:02;;;;;;;55.00;29.57;;;0.10;99.90;;;;;;4956688;29;20445;-66
2022/12/10 12:16:35;;;;;;;47.20;29.47;;;0.30;99.90;;;;;;4956352;29;20436;-66
2022/12/10 12:19:11;;;;;;;47.23;29.60;;;0.30;99.90;;;;;;4957082;29;20445;-66
2022/12/10 12:21:39;;;;;;;49.77;30.30;;;0.40;99.90;;;;;;4957266;29;20462;-66
2022/12/10 12:24:13;;;;;;;46.90;28.83;;;0.30;99.90;;;;;;4957295;29;20465;-66
2022/12/10 12:26:43;;;;;;;54.37;30.63;;;0.40;99.90;;;;;;4956651;29;20954;-66
2022/12/10 12:29:19;;;;;;;47.40;27.17;;;0.40;99.90;;;;;;4956683;29;20498;-66
2022/12/10 12:31:50;;;;;;;51.27;29.80;;;0.30;99.90;;;;;;4956823;29;20469;-66
2022/12/10 12:34:26;;;;;;;49.87;28.20;;;0.20;99.90;;;;;;4970498;28;20520;-66
2022/12/10 12:36:54;;;;;;;47.20;29.27;;;0.20;99.90;;;;;;5022420;28;20712;-66
2022/12/10 12:39:30;;;;;;;55.37;30.60;;;0.20;99.90;;;;;;5054919;28;20722;-66
2022/12/10 12:42:02;;;;;;;46.40;28.00;;;0.20;99.90;;;;;;5055531;28;20469;-66
2022/12/10 12:44:36;;;;;;;53.03;29.83;;;0.30;99.90;;;;;;5055252;28;20428;-66
2022/12/10 12:47:17;;;;;;;48.33;28.20;;;0.20;99.90;;;;;;5055502;28;20937;-66
2022/12/10 12:49:46;;;;;;;48.87;27.97;;;0.20;99.90;;;;;;5055787;28;20812;-66
2022/12/10 12:52:29;;;;;;;48.10;27.73;;;0.20;99.90;;;;;;5057036;28;21451;-66
2022/12/10 12:55:00;;;;;;;47.03;27.73;;;0.20;99.90;;;;;;5056253;28;20472;-66